Date,TemperatureHighF,TemperatureAvgF,TemperatureLowF,DewpointHighF,DewpointAvgF,DewpointLowF,HumidityHigh,HumidityAvg,HumidityLow,PressureMaxIn,PressureMinIn,WindSpeedMaxMPH,WindSpeedAvgMPH,GustSpeedMaxMPH,PrecipitationSumIn
2013-2-1,68,53,41,48,40,34,95,64,30,30.32,30.19,6,1,13,0.01
2013-2-2,69,54,39,55,47,38,98,81,53,30.29,30.12,5,1,12,0.00
2013-2-3,71,56,46,52,47,37,97,75,40,30.19,30.05,7,1,18,0.00
2013-2-4,73,54,41,53,45,39,98,76,44,30.13,30.01,5,1,7,0.00
2013-2-5,77,57,39,56,48,38,98,77,42,30.10,30.00,5,1,10,0.00
2013-2-6,79,64,51,66,59,50,98,84,52,30.11,30.01,6,1,12,0.00
2013-2-7,81,68,56,67,62,55,98,82,56,30.08,29.89,5,1,12,0.00
2013-2-8,81,68,57,65,61,56,97,81,43,30.06,29.86,7,2,15,0.00
2013-2-9,74,63,55,62,58,54,98,85,64,30.19,30.05,5,1,12,0.00
2013-2-10,75,66,59,61,59,56,92,76,60,30.26,30.17,10,2,18,0.00
2013-2-11,82,70,57,65,62,55,98,77,49,30.22,30.07,6,1,12,0.00
2013-2-12,84,71,56,68,64,55,98,81,54,30.11,29.93,6,1,14,0.00
2013-2-13,86,73,64,71,67,59,98,81,49,29.97,29.83,9,3,20,0.00
2013-2-14,74,63,59,67,61,58,97,92,77,30.03,29.91,5,1,12,1.11
2013-2-15,68,61,57,62,58,56,98,93,77,30.06,29.93,5,1,8,0.62
2013-2-16,68,60,49,60,50,35,98,72,40,30.08,29.87,10,3,21,0.01
2013-2-17,56,45,33,40,27,19,95,52,23,30.33,30.08,9,2,20,0.00
2013-2-18,65,51,34,52,41,27,94,70,51,30.34,30.23,7,1,15,0.00
2013-2-19,78,62,45,60,54,44,97,77,50,30.23,30.05,7,2,18,0.00
2013-2-20,74,62,50,65,58,49,98,87,68,30.12,30.01,5,1,10,0.00
2013-2-21,79,68,57,68,62,56,98,84,57,30.10,30.01,6,1,12,0.00
2013-2-22,82,70,57,72,66,56,99,88,68,30.09,29.99,7,2,13,0.00
2013-2-23,86,73,62,71,66,61,98,81,50,30.03,29.86,9,2,17,0.00
2013-2-24,84,71,65,70,67,64,97,88,58,29.97,29.89,8,2,14,0.00
2013-2-25,85,73,66,73,68,65,99,85,51,29.91,29.77,7,2,15,0.52
2013-2-26,82,74,67,73,69,65,97,85,68,29.85,29.75,11,3,23,0.01
2013-2-27,74,66,56,65,60,54,98,83,59,29.96,29.85,6,1,12,0.01
2013-2-28,74,62,51,55,50,43,93,70,37,30.00,29.85,7,2,15,0.00